createdAt,value
2018-06-04T00:02:27.242Z,97956.23
2018-06-04T00:04:55.741Z,97949.13
2018-06-04T00:07:24.479Z,97962.33
2018-06-04T00:09:53.054Z,97986.68
2018-06-04T00:12:21.521Z,97979.58
2018-06-04T00:14:49.982Z,97947.11
2018-06-04T00:17:18.510Z,97984.65
2018-06-04T00:19:47.009Z,97953.20
2018-06-04T00:22:15.490Z,97997.84
2018-06-04T00:24:44.015Z,97980.59
2018-06-04T00:27:12.508Z,97989.72
2018-06-04T00:29:40.985Z,97973.48
2018-06-04T00:32:09.527Z,97982.63
2018-06-04T00:34:38.093Z,97977.55
2018-06-04T00:37:06.583Z,97993.78
2018-06-04T00:39:35.103Z,97996.83
2018-06-04T00:42:03.619Z,98006.97
2018-06-04T00:44:32.109Z,98036.40
2018-06-04T00:47:00.582Z,98015.09
2018-06-04T00:49:29.165Z,98056.70
2018-06-04T00:51:57.643Z,98049.59
2018-06-04T00:54:26.097Z,98110.48
2018-06-04T00:56:54.610Z,98067.86
2018-06-04T00:59:23.087Z,98073.95
2018-06-04T01:01:51.689Z,98069.89
2018-06-04T01:04:20.145Z,98060.75
2018-06-04T01:06:48.719Z,98044.52
2018-06-04T01:09:17.301Z,98057.70
2018-06-04T01:11:45.761Z,98029.30
2018-06-04T01:14:14.217Z,98086.13
2018-06-04T01:16:42.705Z,98111.48
2018-06-04T01:19:11.174Z,98069.89
2018-06-04T01:21:39.666Z,98055.68
2018-06-04T01:24:08.143Z,98083.08
2018-06-04T01:26:36.601Z,98096.27
2018-06-04T01:29:05.602Z,98089.16
2018-06-04T01:31:34.063Z,98069.89
2018-06-04T01:34:02.525Z,98051.63
2018-06-04T01:36:31.106Z,98093.22
2018-06-04T01:38:59.583Z,98082.06
2018-06-04T01:41:28.045Z,98092.20
2018-06-04T01:43:56.598Z,98088.15
2018-06-04T01:46:25.056Z,98081.05
2018-06-04T01:48:53.657Z,98040.45
2018-06-04T01:51:22.118Z,98037.41
2018-06-04T01:53:50.597Z,98081.05
2018-06-04T01:56:19.090Z,98038.43
2018-06-04T01:58:47.551Z,98038.43
2018-06-04T02:01:16.473Z,98031.33
2018-06-04T02:03:44.924Z,98007.98
2018-06-04T02:06:13.411Z,98031.33
2018-06-04T02:08:42.514Z,98025.23
2018-06-04T02:11:10.977Z,98029.30
2018-06-04T02:13:39.475Z,98024.22
2018-06-04T02:16:07.980Z,97978.56
2018-06-04T02:18:36.482Z,98019.15
2018-06-04T02:21:04.956Z,98015.09
2018-06-04T02:23:33.856Z,97998.86
2018-06-04T02:26:02.343Z,97981.61
2018-06-04T02:28:30.815Z,97970.45
2018-06-04T02:30:59.323Z,97977.55
2018-06-04T02:33:27.867Z,97990.73
2018-06-04T02:35:56.377Z,97981.61
2018-06-04T02:38:24.861Z,97978.56
2018-06-04T02:40:53.674Z,97991.75
2018-06-04T02:43:22.139Z,97983.64
2018-06-04T02:45:50.688Z,97954.21
2018-06-04T02:48:19.173Z,97932.90
2018-06-04T02:50:47.654Z,97940.00
2018-06-04T02:53:16.171Z,97961.31
2018-06-04T02:55:44.643Z,97961.31
2018-06-04T02:58:13.162Z,97977.55
2018-06-04T03:00:41.639Z,97942.03
2018-06-04T03:03:10.148Z,97941.02
2018-06-04T03:05:38.619Z,97931.88
2018-06-04T03:08:07.254Z,97943.05
2018-06-04T03:10:35.771Z,97970.45
2018-06-04T03:13:04.275Z,97961.31
2018-06-04T03:15:33.187Z,97974.50
2018-06-04T03:18:01.679Z,97977.55
2018-06-04T03:20:30.187Z,97967.41
2018-06-04T03:22:58.704Z,97936.95
2018-06-04T03:25:27.246Z,97943.05
2018-06-04T03:27:55.788Z,97974.50
2018-06-04T03:30:24.283Z,97950.15
2018-06-04T03:32:52.899Z,97972.47
2018-06-04T03:35:21.398Z,97945.08
2018-06-04T03:37:49.957Z,97970.45
2018-06-04T03:40:18.494Z,97955.22
2018-06-04T03:42:47.019Z,97960.30
2018-06-04T03:45:15.915Z,97964.36
2018-06-04T03:47:44.386Z,97927.83
2018-06-04T03:50:12.869Z,97947.11
2018-06-04T03:52:41.699Z,97976.53
2018-06-04T03:55:10.175Z,97962.33
2018-06-04T03:57:38.646Z,97943.05
2018-06-04T04:00:07.218Z,97957.25
2018-06-04T04:02:35.764Z,97940.00
2018-06-04T04:05:04.251Z,97955.22
2018-06-04T04:07:32.748Z,97959.28
2018-06-04T04:10:01.262Z,97945.08
2018-06-04T04:12:30.153Z,97934.93
2018-06-04T04:14:58.640Z,97955.22
2018-06-04T04:17:27.171Z,97922.75
2018-06-04T04:19:56.092Z,97914.64
2018-06-04T04:22:24.590Z,97934.93
2018-06-04T04:24:53.074Z,97925.80
2018-06-04T04:27:21.593Z,97902.46
2018-06-04T04:29:50.238Z,97884.20
2018-06-04T04:32:19.130Z,97869.99
2018-06-04T04:34:47.595Z,97876.08
2018-06-04T04:37:16.741Z,97878.11
2018-06-04T04:39:45.271Z,97872.02
2018-06-04T04:42:13.768Z,97899.41
2018-06-04T04:44:42.710Z,97900.43
2018-06-04T04:47:11.800Z,97880.13
2018-06-04T04:49:40.291Z,97893.33
2018-06-04T04:52:09.028Z,97919.70
2018-06-04T04:54:37.525Z,97946.09
2018-06-04T04:57:06.051Z,97922.75
2018-06-04T04:59:34.604Z,97863.91
2018-06-04T05:02:03.098Z,97889.27
2018-06-04T05:04:32.607Z,97935.94
2018-06-04T05:07:01.127Z,97902.46
2018-06-04T05:09:29.658Z,97894.34
2018-06-04T05:11:58.195Z,97868.98
2018-06-04T05:14:26.762Z,97849.70
2018-06-04T05:16:55.296Z,97877.09
2018-06-04T05:19:23.894Z,97874.05
2018-06-04T05:21:52.453Z,97860.86
2018-06-04T05:24:20.963Z,97863.91
2018-06-04T05:26:49.494Z,97865.93
2018-06-04T05:29:18.014Z,97884.20
2018-06-04T05:31:46.630Z,97859.84
2018-06-04T05:34:15.477Z,97893.33
2018-06-04T05:36:43.971Z,97868.98
2018-06-04T05:39:12.516Z,97875.06
2018-06-04T05:41:41.167Z,97867.95
2018-06-04T05:44:09.680Z,97886.23
2018-06-04T05:46:38.199Z,97872.02
2018-06-04T05:49:06.968Z,97836.50
2018-06-04T05:51:35.505Z,97877.09
2018-06-04T05:54:03.989Z,97910.58
2018-06-04T05:56:32.523Z,97878.11
2018-06-04T05:59:01.052Z,97839.55
2018-06-04T06:01:29.552Z,97824.33
2018-06-04T06:03:58.107Z,97809.11
2018-06-04T06:06:26.618Z,97744.17
2018-06-04T06:08:55.592Z,97752.29
2018-06-04T06:11:24.102Z,97679.23
2018-06-04T06:13:52.593Z,97710.69
2018-06-04T06:16:21.238Z,97711.70
2018-06-04T06:18:49.741Z,97667.06
2018-06-04T06:21:18.255Z,97628.50
2018-06-04T06:23:46.779Z,97621.41
2018-06-04T06:26:15.302Z,97705.62
2018-06-04T06:28:43.853Z,97564.59
2018-06-04T06:31:12.811Z,97565.60
2018-06-04T06:33:41.438Z,97563.58
2018-06-04T06:36:09.917Z,97600.09
2018-06-04T06:38:38.514Z,97721.85
2018-06-04T06:41:07.031Z,97491.54
2018-06-04T06:43:35.542Z,97520.96
2018-06-04T06:46:04.060Z,97542.27
2018-06-04T06:48:32.595Z,97614.30
2018-06-04T06:51:01.096Z,97583.86
2018-06-04T06:53:29.607Z,97645.75
2018-06-04T06:55:58.103Z,97675.18
2018-06-04T06:58:26.648Z,97680.25
2018-06-04T07:00:55.197Z,97680.25
2018-06-04T07:03:23.814Z,97712.72
2018-06-04T07:05:52.338Z,97665.03
2018-06-04T07:08:20.874Z,97618.36
2018-06-04T07:10:49.395Z,97573.72
2018-06-04T07:13:17.886Z,97629.52
2018-06-04T07:15:46.404Z,97651.84
2018-06-04T07:18:14.958Z,97584.87
2018-06-04T07:20:43.473Z,97581.84
2018-06-04T07:23:11.966Z,97532.13
2018-06-04T07:25:40.516Z,97545.31
2018-06-04T07:28:09.140Z,97535.16
2018-06-04T07:30:37.610Z,97505.74
2018-06-04T07:33:06.123Z,97467.19
2018-06-04T07:35:34.669Z,97467.19
2018-06-04T07:38:03.152Z,97449.94
2018-06-04T07:40:31.779Z,97466.17
2018-06-04T07:43:00.663Z,97421.53
2018-06-04T07:45:29.154Z,97388.05
2018-06-04T07:47:57.642Z,97350.52
2018-06-04T07:50:26.311Z,97344.43
2018-06-04T07:52:54.832Z,97431.68
2018-06-04T07:55:23.479Z,97334.28
2018-06-04T07:57:51.963Z,97343.41
2018-06-04T08:00:20.485Z,97299.80
2018-06-04T08:02:49.455Z,97265.30
2018-06-04T08:05:17.982Z,97291.67
2018-06-04T08:07:46.487Z,97408.34
2018-06-04T08:10:15.035Z,97348.48
2018-06-04T08:12:43.608Z,97368.78
2018-06-04T08:15:12.467Z,97398.20
2018-06-04T08:17:40.952Z,97309.94
2018-06-04T08:20:09.434Z,97339.36
2018-06-04T08:22:37.951Z,97288.63
2018-06-04T08:25:06.462Z,97327.19
2018-06-04T08:27:34.985Z,97380.95
2018-06-04T08:30:03.515Z,97357.62
2018-06-04T08:32:32.182Z,97291.67
2018-06-04T08:35:00.899Z,97361.68
2018-06-04T08:37:29.515Z,97277.47
2018-06-04T08:39:58.024Z,97378.92
2018-06-04T08:42:26.506Z,97353.56
2018-06-04T08:44:55.059Z,97422.55
2018-06-04T08:47:23.579Z,97419.51
2018-06-04T08:49:52.095Z,97491.54
2018-06-04T08:52:20.725Z,97355.59
2018-06-04T08:54:49.221Z,97302.84
2018-06-04T08:57:17.736Z,97393.13
2018-06-04T08:59:46.240Z,97360.66
2018-06-04T09:02:14.771Z,97438.78
2018-06-04T09:04:43.318Z,97502.70
2018-06-04T09:07:11.846Z,97393.13
2018-06-04T09:09:40.334Z,97508.78
2018-06-04T09:12:08.818Z,97417.48
2018-06-04T09:14:37.352Z,97513.86
2018-06-04T09:17:06.697Z,97335.30
2018-06-04T09:19:35.550Z,97266.31
2018-06-04T09:22:04.055Z,97277.47
2018-06-04T09:24:32.559Z,97293.70
2018-06-04T09:27:01.179Z,97216.60
2018-06-04T09:29:29.688Z,97295.73
2018-06-04T09:31:58.220Z,97189.21
2018-06-04T09:34:26.715Z,97135.45
2018-06-04T09:36:55.252Z,97137.48
2018-06-04T09:39:23.755Z,97128.34
2018-06-04T09:41:52.408Z,96983.28
2018-06-04T09:44:20.918Z,97014.73
2018-06-04T09:46:49.464Z,97086.75
2018-06-04T09:49:18.155Z,96938.65
2018-06-04T09:51:46.654Z,96898.08
2018-06-04T09:54:15.158Z,97069.51
2018-06-04T09:56:43.702Z,96793.59
2018-06-04T09:59:12.197Z,96840.25
2018-06-04T10:01:40.699Z,96718.53
2018-06-04T10:04:09.219Z,96887.93
2018-06-04T10:06:37.722Z,96764.17
2018-06-04T10:09:08.242Z,96929.52
2018-06-04T10:11:36.791Z,97050.23
2018-06-04T10:14:05.723Z,96761.13
2018-06-04T10:16:34.323Z,96766.20
2018-06-04T10:19:02.847Z,96763.16
2018-06-04T10:21:31.691Z,96647.53
2018-06-04T10:24:00.558Z,96725.63
2018-06-04T10:26:29.082Z,96650.57
2018-06-04T10:28:57.627Z,96556.23
2018-06-04T10:31:26.159Z,96464.95
2018-06-04T10:33:54.801Z,96659.70
2018-06-04T10:36:23.334Z,96910.25
2018-06-04T10:38:51.842Z,96893.00
2018-06-04T10:41:20.453Z,96569.42
2018-06-04T10:43:48.947Z,96777.36
2018-06-04T10:46:17.438Z,96987.34
2018-06-04T10:48:46.069Z,96831.13
2018-06-04T10:51:14.575Z,96650.57
2018-06-04T10:53:43.074Z,96723.60
2018-06-04T10:56:11.919Z,96719.55
2018-06-04T10:58:40.445Z,96703.31
2018-06-04T11:01:08.948Z,96879.81
2018-06-04T11:03:37.516Z,96755.05
2018-06-04T11:06:06.012Z,96761.13
2018-06-04T11:08:34.534Z,96690.12
2018-06-04T11:11:03.063Z,96674.91
2018-06-04T11:13:31.605Z,96721.58
2018-06-04T11:16:00.097Z,96665.78
2018-06-04T11:18:28.768Z,96733.75
2018-06-04T11:20:57.288Z,96769.25
2018-06-04T11:23:25.787Z,96763.16
2018-06-04T11:25:54.301Z,96745.92
2018-06-04T11:28:22.815Z,96951.83
2018-06-04T11:30:51.366Z,96682.02
2018-06-04T11:33:19.878Z,96679.98
2018-06-04T11:35:48.375Z,96862.56
2018-06-04T11:38:17.391Z,96671.88
2018-06-04T11:40:45.898Z,96746.94
2018-06-04T11:43:14.377Z,96652.59
2018-06-04T11:45:43.036Z,96896.05
2018-06-04T11:48:11.538Z,96732.73
2018-06-04T11:50:40.067Z,96709.41
2018-06-04T11:53:08.683Z,96713.46
2018-06-04T11:55:37.211Z,96659.70
2018-06-04T11:58:05.738Z,96547.11
2018-06-04T12:00:34.279Z,96808.80
2018-06-04T12:03:02.782Z,96871.70
2018-06-04T12:05:31.428Z,96784.47
2018-06-04T12:08:00.014Z,96878.80
2018-06-04T12:10:28.519Z,96806.78
2018-06-04T12:12:57.155Z,96622.17
2018-06-04T12:15:25.662Z,96411.20
2018-06-04T12:17:54.154Z,96455.83
2018-06-04T12:20:22.660Z,96689.12
2018-06-04T12:22:51.183Z,96858.52
2018-06-04T12:25:19.723Z,96903.14
2018-06-04T12:27:48.646Z,96888.94
2018-06-04T12:30:17.134Z,96584.64
2018-06-04T12:32:46.486Z,96662.74
2018-06-04T12:35:15.035Z,96614.05
2018-06-04T12:37:43.514Z,96656.66
2018-06-04T12:40:12.191Z,96669.84
2018-06-04T12:42:40.719Z,96659.70
2018-06-04T12:45:09.198Z,96708.39
2018-06-04T12:47:37.735Z,96648.55
2018-06-04T12:50:06.226Z,96617.10
2018-06-04T12:52:34.810Z,96586.67
2018-06-04T12:55:03.335Z,96576.53
2018-06-04T12:57:31.918Z,96698.24
2018-06-04T13:00:00.468Z,96615.07
2018-06-04T13:02:28.966Z,96627.23
2018-06-04T13:04:57.584Z,96555.23
2018-06-04T13:07:26.363Z,96622.17
2018-06-04T13:09:54.861Z,96666.80
2018-06-04T13:12:23.338Z,96669.84
2018-06-04T13:14:51.841Z,96675.93
2018-06-04T13:17:20.383Z,96757.08
2018-06-04T13:19:48.883Z,96603.91
2018-06-04T13:22:17.471Z,96591.74
2018-06-04T13:24:45.978Z,96683.03
2018-06-04T13:27:14.487Z,96764.17
2018-06-04T13:29:43.033Z,96730.70
2018-06-04T13:32:11.550Z,96692.16
2018-06-04T13:34:40.062Z,96627.23
2018-06-04T13:37:08.660Z,96565.38
2018-06-04T13:39:37.338Z,96649.55
2018-06-04T13:42:05.876Z,96784.47
2018-06-04T13:44:34.433Z,96693.17
2018-06-04T13:47:03.018Z,96798.66
2018-06-04T13:49:31.516Z,96706.36
2018-06-04T13:52:00.430Z,96505.53
2018-06-04T13:54:28.941Z,96615.07
2018-06-04T13:56:57.451Z,96704.33
2018-06-04T13:59:25.981Z,96699.26
2018-06-04T14:01:54.483Z,96639.41
2018-06-04T14:04:23.122Z,96506.55
2018-06-04T14:06:51.659Z,96593.77
2018-06-04T14:09:20.146Z,96657.67
2018-06-04T14:11:49.369Z,96415.26
2018-06-04T14:14:17.879Z,96579.57
2018-06-04T14:16:46.393Z,96403.09
2018-06-04T14:19:14.894Z,96490.31
2018-06-04T14:21:43.852Z,96631.30
2018-06-04T14:24:12.347Z,96575.52
2018-06-04T14:26:41.167Z,96471.04
2018-06-04T14:29:09.746Z,96433.52
2018-06-04T14:31:38.277Z,96694.19
2018-06-04T14:34:06.803Z,96411.20
2018-06-04T14:36:35.469Z,96457.86
2018-06-04T14:39:06.547Z,96720.56
2018-06-04T14:41:35.458Z,96576.53
2018-06-04T14:44:03.992Z,96542.04
2018-06-04T14:46:32.526Z,96153.59
2018-06-04T14:49:01.091Z,96498.42
2018-06-04T14:51:36.135Z,96686.08
2018-06-04T14:54:05.985Z,96558.27
2018-06-04T14:56:34.569Z,96530.89
2018-06-04T14:59:03.078Z,96617.10
2018-06-04T15:01:31.646Z,96632.31
2018-06-04T15:04:00.199Z,96711.43
2018-06-04T15:06:28.690Z,96563.34
2018-06-04T15:08:57.232Z,96578.55
2018-06-04T15:11:25.751Z,96697.23
2018-06-04T15:13:54.245Z,96658.69
2018-06-04T15:16:22.818Z,96672.89
2018-06-04T15:18:51.341Z,96698.24
2018-06-04T15:21:19.837Z,96718.53
2018-06-04T15:23:48.728Z,96723.60
2018-06-04T15:26:17.203Z,96696.22
2018-06-04T15:28:45.703Z,96715.48
2018-06-04T15:31:14.254Z,96753.02
2018-06-04T15:33:42.734Z,96734.76
2018-06-04T15:36:11.379Z,96824.02
2018-06-04T15:38:39.890Z,96823.01
2018-06-04T15:41:08.374Z,96805.77
2018-06-04T15:43:37.014Z,96862.56
2018-06-04T15:46:05.671Z,96848.37
2018-06-04T15:48:34.186Z,96841.27
2018-06-04T15:51:02.757Z,96876.77
2018-06-04T15:53:31.300Z,96852.42
2018-06-04T15:56:00.737Z,96957.92
2018-06-04T15:58:29.227Z,97019.80
2018-06-04T16:00:57.759Z,97059.36
2018-06-04T16:03:26.285Z,97025.89
2018-06-04T16:05:54.802Z,97095.88
2018-06-04T16:08:23.318Z,97076.61
2018-06-04T16:10:52.392Z,97091.83
2018-06-04T16:13:20.914Z,97139.50
2018-06-04T16:15:49.415Z,97199.36
2018-06-04T16:18:17.958Z,97183.13
2018-06-04T16:20:46.446Z,97135.45
2018-06-04T16:23:14.946Z,97181.09
2018-06-04T16:25:43.859Z,97155.73
2018-06-04T16:28:12.340Z,97122.27
2018-06-04T16:30:40.819Z,97136.46
2018-06-04T16:33:09.430Z,97139.50
2018-06-04T16:35:38.018Z,97144.58
2018-06-04T16:38:06.521Z,97143.56
2018-06-04T16:40:35.035Z,97169.94
2018-06-04T16:43:03.694Z,97172.98
2018-06-04T16:45:32.191Z,97223.70
2018-06-04T16:48:00.767Z,97290.66
2018-06-04T16:50:29.310Z,97346.45
2018-06-04T16:52:57.782Z,97330.23
2018-06-04T16:55:26.290Z,97408.34
2018-06-04T16:57:54.881Z,97350.52
2018-06-04T17:00:23.374Z,97352.55
2018-06-04T17:02:52.455Z,97384.00
2018-06-04T17:05:21.047Z,97402.26
2018-06-04T17:07:49.536Z,97397.19
2018-06-04T17:10:18.095Z,97442.84
2018-06-04T17:12:46.666Z,97478.34
2018-06-04T17:15:15.219Z,97487.48
2018-06-04T17:17:43.816Z,97486.47
2018-06-04T17:20:12.531Z,97476.32
2018-06-04T17:22:42.076Z,97486.47
2018-06-04T17:25:10.575Z,97465.16
2018-06-04T17:27:39.553Z,97507.77
2018-06-04T17:30:08.058Z,97539.22
2018-06-04T17:32:36.687Z,97547.34
2018-06-04T17:35:05.879Z,97491.54
2018-06-04T17:37:34.399Z,97486.47
2018-06-04T17:40:02.913Z,97545.31
2018-06-04T17:42:31.504Z,97541.25
2018-06-04T17:45:00.150Z,97566.62
2018-06-04T17:47:28.686Z,97583.86
2018-06-04T17:49:57.339Z,97545.31
2018-06-04T17:52:25.838Z,97537.20
2018-06-04T17:54:54.350Z,97588.94
2018-06-04T17:57:23.013Z,97627.48
2018-06-04T17:59:51.515Z,97566.62
2018-06-04T18:02:20.058Z,97591.98
2018-06-04T18:04:48.612Z,97603.14
2018-06-04T18:07:17.115Z,97640.68
2018-06-04T18:09:45.810Z,97678.22
2018-06-04T18:12:14.326Z,97638.66
2018-06-04T18:14:42.978Z,97634.59
2018-06-04T18:17:11.523Z,97636.63
2018-06-04T18:19:40.513Z,97654.88
2018-06-04T18:22:09.067Z,97626.48
2018-06-04T18:24:37.681Z,97687.36
2018-06-04T18:27:06.207Z,97626.48
2018-06-04T18:29:34.717Z,97657.93
2018-06-04T18:32:03.330Z,97715.77
2018-06-04T18:34:31.842Z,97721.85
2018-06-04T18:37:00.346Z,97704.60
2018-06-04T18:39:28.930Z,97706.63
2018-06-04T18:41:57.520Z,97739.09
2018-06-04T18:44:26.059Z,97744.17
2018-06-04T18:46:54.599Z,97746.20
2018-06-04T18:49:23.128Z,97740.11
2018-06-04T18:51:51.650Z,97795.92
2018-06-04T18:54:20.280Z,97808.09
2018-06-04T18:56:48.922Z,97752.29
2018-06-04T18:59:17.502Z,97760.41
2018-06-04T19:01:46.011Z,97781.71
2018-06-04T19:04:14.556Z,97775.63
2018-06-04T19:06:44.388Z,97788.81
2018-06-04T19:09:12.910Z,97771.57
2018-06-04T19:11:41.528Z,97790.84
2018-06-04T19:14:10.094Z,97780.70
2018-06-04T19:16:38.606Z,97822.30
2018-06-04T19:19:07.214Z,97794.91
2018-06-04T19:21:35.734Z,97774.61
2018-06-04T19:24:04.276Z,97824.33
2018-06-04T19:26:34.052Z,97756.35
2018-06-04T19:29:02.604Z,97824.33
2018-06-04T19:31:31.140Z,97815.20
2018-06-04T19:33:59.649Z,97828.39
2018-06-04T19:36:28.158Z,97784.76
2018-06-04T19:38:56.778Z,97819.26
2018-06-04T19:41:25.275Z,97830.42
2018-06-04T19:43:53.807Z,97818.24
2018-06-04T19:46:22.322Z,97819.26
2018-06-04T19:48:50.852Z,97831.44
2018-06-04T19:51:19.469Z,97876.08
2018-06-04T19:53:47.983Z,97873.03
2018-06-04T19:56:16.655Z,97885.21
2018-06-04T19:58:45.579Z,97827.38
2018-06-04T20:01:14.078Z,97882.17
2018-06-04T20:03:42.584Z,97857.81
2018-06-04T20:06:11.160Z,97867.95
2018-06-04T20:08:40.217Z,97869.99
2018-06-04T20:11:08.678Z,97858.83
2018-06-04T20:13:37.163Z,97886.23
2018-06-04T20:16:05.678Z,97911.59
2018-06-04T20:18:35.059Z,97916.66
2018-06-04T20:21:03.637Z,97945.08
2018-06-04T20:23:32.147Z,97914.64
2018-06-04T20:26:00.650Z,97892.31
2018-06-04T20:28:29.268Z,97938.98
2018-06-04T20:30:57.745Z,97926.81
2018-06-04T20:33:26.234Z,97949.13
2018-06-04T20:35:54.737Z,97896.38
2018-06-04T20:38:23.466Z,97948.12
2018-06-04T20:40:52.483Z,97904.48
2018-06-04T20:43:20.962Z,97919.70
2018-06-04T20:45:49.447Z,97983.64
2018-06-04T20:48:18.063Z,97919.70
2018-06-04T20:50:46.550Z,97940.00
2018-06-04T20:53:15.674Z,97926.81
2018-06-04T20:55:44.930Z,97951.16
2018-06-04T20:58:13.421Z,97951.16
2018-06-04T21:00:41.927Z,97955.22
2018-06-04T21:03:10.493Z,97937.97
2018-06-04T21:05:39.113Z,97949.13
2018-06-04T21:08:07.730Z,97962.33
2018-06-04T21:10:36.235Z,97949.13
2018-06-04T21:13:04.793Z,97902.46
2018-06-04T21:15:33.290Z,97986.68
2018-06-04T21:18:01.793Z,97957.25
2018-06-04T21:20:30.326Z,97995.81
2018-06-04T21:22:58.809Z,97970.45
2018-06-04T21:25:27.358Z,97955.22
2018-06-04T21:27:55.845Z,98015.09
2018-06-04T21:30:24.363Z,98003.92
2018-06-04T21:32:52.869Z,97989.72
2018-06-04T21:35:21.375Z,97960.30
2018-06-04T21:37:49.908Z,97972.47
2018-06-04T21:40:18.568Z,97966.38
2018-06-04T21:42:47.257Z,97967.41
2018-06-04T21:45:15.771Z,97949.13
2018-06-04T21:47:44.393Z,97946.09
2018-06-04T21:50:12.895Z,97956.23
2018-06-04T21:52:41.374Z,97948.12
2018-06-04T21:55:09.879Z,97953.20
2018-06-04T21:57:38.487Z,97989.72
2018-06-04T22:00:09.314Z,97965.37
2018-06-04T22:02:38.448Z,97963.34
2018-06-04T22:05:07.123Z,97971.45
2018-06-04T22:07:35.621Z,98042.48
2018-06-04T22:10:04.311Z,98007.98
2018-06-04T22:12:32.812Z,97998.86
2018-06-04T22:15:01.341Z,97997.84
2018-06-04T22:17:29.882Z,97987.69
2018-06-04T22:19:58.830Z,97990.73
2018-06-04T22:22:27.394Z,98039.45
2018-06-04T22:24:55.887Z,98019.15
2018-06-04T22:27:24.489Z,97973.48
2018-06-04T22:29:52.982Z,98040.45
2018-06-04T22:32:21.614Z,98016.11
2018-06-04T22:34:50.101Z,98038.43
2018-06-04T22:37:18.627Z,98015.09
2018-06-04T22:39:47.527Z,98044.52
2018-06-04T22:42:16.026Z,98055.68
2018-06-04T22:44:44.536Z,98025.23
2018-06-04T22:47:13.055Z,98064.81
2018-06-04T22:49:41.930Z,98009.00
2018-06-04T22:52:10.413Z,98018.13
2018-06-04T22:54:38.907Z,98025.23
2018-06-04T22:57:07.479Z,97988.70
2018-06-04T22:59:35.946Z,98020.16
2018-06-04T23:02:04.447Z,98052.64
2018-06-04T23:04:33.001Z,98001.90
2018-06-04T23:07:01.512Z,98083.08
2018-06-04T23:09:30.001Z,98058.72
2018-06-04T23:11:58.598Z,98035.38
2018-06-04T23:14:27.058Z,98035.38
2018-06-04T23:16:55.542Z,98086.13
2018-06-04T23:19:24.013Z,98066.84
2018-06-04T23:21:52.541Z,98016.11
2018-06-04T23:24:21.012Z,98005.95
2018-06-04T23:26:49.499Z,98026.25
2018-06-04T23:29:17.989Z,98064.81
2018-06-04T23:31:46.481Z,98014.08
2018-06-04T23:34:14.966Z,98029.30
2018-06-04T23:36:43.427Z,98019.15
2018-06-04T23:39:11.969Z,98043.50
2018-06-04T23:41:40.450Z,97989.72
2018-06-04T23:44:09.016Z,98041.47
2018-06-04T23:46:37.509Z,98057.70
2018-06-04T23:49:06.003Z,98052.64
2018-06-04T23:51:35.512Z,98013.06
2018-06-04T23:54:04.006Z,98046.55
2018-06-04T23:56:32.489Z,98048.58
2018-06-04T23:59:01.069Z,98078.00
